sensor_id;sensor_type;location;lat;lon;timestamp;P1;durP1;ratioP1;P2;durP2;ratioP2
29430;SDS011;16404;49.902;10.074;2023-02-18T00:02:32;8.57;;;7.32;;
29430;SDS011;16404;49.902;10.074;2023-02-18T00:05:17;7.60;;;6.63;;
29430;SDS011;16404;49.902;10.074;2023-02-18T00:08:01;9.25;;;7.50;;
29430;SDS011;16404;49.902;10.074;2023-02-18T00:10:46;10.60;;;8.65;;
29430;SDS011;16404;49.902;10.074;2023-02-18T00:13:31;9.70;;;7.95;;
29430;SDS011;16404;49.902;10.074;2023-02-18T00:16:16;10.18;;;8.50;;
29430;SDS011;16404;49.902;10.074;2023-02-18T00:19:01;13.35;;;9.00;;
29430;SDS011;16404;49.902;10.074;2023-02-18T00:21:48;12.13;;;9.55;;
29430;SDS011;16404;49.902;10.074;2023-02-18T00:24:33;12.18;;;9.35;;
29430;SDS011;16404;49.902;10.074;2023-02-18T00:27:17;11.43;;;9.40;;
29430;SDS011;16404;49.902;10.074;2023-02-18T00:30:02;12.38;;;10.20;;
29430;SDS011;16404;49.902;10.074;2023-02-18T00:35:32;12.50;;;9.45;;
29430;SDS011;16404;49.902;10.074;2023-02-18T00:38:16;13.20;;;10.50;;
29430;SDS011;16404;49.902;10.074;2023-02-18T00:41:01;13.18;;;10.27;;
29430;SDS011;16404;49.902;10.074;2023-02-18T00:43:46;13.63;;;10.88;;
29430;SDS011;16404;49.902;10.074;2023-02-18T00:46:31;13.82;;;11.05;;
29430;SDS011;16404;49.902;10.074;2023-02-18T00:49:17;17.08;;;12.05;;
29430;SDS011;16404;49.902;10.074;2023-02-18T00:52:02;13.02;;;11.13;;
29430;SDS011;16404;49.902;10.074;2023-02-18T00:54:47;15.05;;;11.40;;
29430;SDS011;16404;49.902;10.074;2023-02-18T00:57:32;13.77;;;11.30;;
29430;SDS011;16404;49.902;10.074;2023-02-18T01:00:16;19.67;;;12.05;;
29430;SDS011;16404;49.902;10.074;2023-02-18T01:03:01;14.45;;;11.82;;
29430;SDS011;16404;49.902;10.074;2023-02-18T01:05:46;17.52;;;12.48;;
29430;SDS011;16404;49.902;10.074;2023-02-18T01:08:30;16.05;;;12.55;;
29430;SDS011;16404;49.902;10.074;2023-02-18T01:11:15;15.75;;;12.27;;
29430;SDS011;16404;49.902;10.074;2023-02-18T01:13:59;15.40;;;11.95;;
29430;SDS011;16404;49.902;10.074;2023-02-18T01:16:46;15.70;;;11.98;;
29430;SDS011;16404;49.902;10.074;2023-02-18T01:19:31;14.68;;;10.85;;
29430;SDS011;16404;49.902;10.074;2023-02-18T01:22:17;13.30;;;11.13;;
29430;SDS011;16404;49.902;10.074;2023-02-18T01:25:02;14.55;;;11.15;;
29430;SDS011;16404;49.902;10.074;2023-02-18T01:27:47;14.05;;;10.68;;
29430;SDS011;16404;49.902;10.074;2023-02-18T01:30:32;16.13;;;11.88;;
29430;SDS011;16404;49.902;10.074;2023-02-18T01:33:17;15.98;;;11.85;;
29430;SDS011;16404;49.902;10.074;2023-02-18T01:36:02;14.45;;;10.68;;
29430;SDS011;16404;49.902;10.074;2023-02-18T01:38:47;13.80;;;10.70;;
29430;SDS011;16404;49.902;10.074;2023-02-18T01:41:31;16.85;;;11.65;;
29430;SDS011;16404;49.902;10.074;2023-02-18T01:44:17;13.13;;;10.85;;
29430;SDS011;16404;49.902;10.074;2023-02-18T01:47:03;14.90;;;10.98;;
29430;SDS011;16404;49.902;10.074;2023-02-18T01:49:49;15.93;;;10.98;;
29430;SDS011;16404;49.902;10.074;2023-02-18T01:52:35;14.63;;;10.55;;
29430;SDS011;16404;49.902;10.074;2023-02-18T01:55:20;14.43;;;10.95;;
29430;SDS011;16404;49.902;10.074;2023-02-18T01:58:05;14.30;;;10.98;;
29430;SDS011;16404;49.902;10.074;2023-02-18T02:00:50;15.88;;;10.82;;
29430;SDS011;16404;49.902;10.074;2023-02-18T02:03:34;14.60;;;11.13;;
29430;SDS011;16404;49.902;10.074;2023-02-18T02:06:20;14.80;;;10.77;;
29430;SDS011;16404;49.902;10.074;2023-02-18T02:09:09;15.25;;;11.13;;
29430;SDS011;16404;49.902;10.074;2023-02-18T02:18:43;10.57;;;8.23;;
29430;SDS011;16404;49.902;10.074;2023-02-18T02:21:52;11.40;;;8.38;;
29430;SDS011;16404;49.902;10.074;2023-02-18T02:40:51;10.32;;;8.10;;
29430;SDS011;16404;49.902;10.074;2023-02-18T02:46:37;9.43;;;7.07;;
29430;SDS011;16404;49.902;10.074;2023-02-18T02:49:35;9.25;;;7.45;;
29430;SDS011;16404;49.902;10.074;2023-02-18T02:55:10;8.43;;;6.22;;
29430;SDS011;16404;49.902;10.074;2023-02-18T02:57:58;10.45;;;5.68;;
29430;SDS011;16404;49.902;10.074;2023-02-18T03:07:48;6.18;;;4.82;;
29430;SDS011;16404;49.902;10.074;2023-02-18T03:23:06;4.70;;;3.78;;
29430;SDS011;16404;49.902;10.074;2023-02-18T03:25:54;6.35;;;4.22;;
29430;SDS011;16404;49.902;10.074;2023-02-18T03:28:42;4.75;;;3.75;;
29430;SDS011;16404;49.902;10.074;2023-02-18T03:31:28;4.47;;;3.45;;
29430;SDS011;16404;49.902;10.074;2023-02-18T03:34:15;4.72;;;3.65;;
29430;SDS011;16404;49.902;10.074;2023-02-18T03:37:02;6.18;;;3.60;;
29430;SDS011;16404;49.902;10.074;2023-02-18T03:39:49;4.47;;;3.50;;
29430;SDS011;16404;49.902;10.074;2023-02-18T03:45:28;4.32;;;3.60;;
29430;SDS011;16404;49.902;10.074;2023-02-18T03:48:13;5.05;;;3.75;;
29430;SDS011;16404;49.902;10.074;2023-02-18T03:50:58;3.70;;;3.05;;
29430;SDS011;16404;49.902;10.074;2023-02-18T03:53:42;3.45;;;2.80;;
29430;SDS011;16404;49.902;10.074;2023-02-18T03:56:29;4.40;;;2.53;;
29430;SDS011;16404;49.902;10.074;2023-02-18T03:59:13;4.93;;;3.08;;
29430;SDS011;16404;49.902;10.074;2023-02-18T04:01:58;5.10;;;2.80;;
29430;SDS011;16404;49.902;10.074;2023-02-18T04:07:27;4.63;;;2.40;;
29430;SDS011;16404;49.902;10.074;2023-02-18T04:10:12;3.38;;;2.58;;
29430;SDS011;16404;49.902;10.074;2023-02-18T04:12:57;2.47;;;2.28;;
29430;SDS011;16404;49.902;10.074;2023-02-18T04:15:41;4.65;;;2.65;;
29430;SDS011;16404;49.902;10.074;2023-02-18T04:21:10;2.45;;;2.17;;
29430;SDS011;16404;49.902;10.074;2023-02-18T04:23:55;4.03;;;2.50;;
29430;SDS011;16404;49.902;10.074;2023-02-18T04:26:40;5.45;;;2.78;;
29430;SDS011;16404;49.902;10.074;2023-02-18T04:29:24;3.15;;;2.80;;
29430;SDS011;16404;49.902;10.074;2023-02-18T04:32:09;6.63;;;3.00;;
29430;SDS011;16404;49.902;10.074;2023-02-18T04:34:53;4.32;;;3.03;;
29430;SDS011;16404;49.902;10.074;2023-02-18T04:37:38;3.90;;;3.08;;
29430;SDS011;16404;49.902;10.074;2023-02-18T04:40:22;5.70;;;2.42;;
29430;SDS011;16404;49.902;10.074;2023-02-18T04:43:09;6.00;;;3.17;;
29430;SDS011;16404;49.902;10.074;2023-02-18T04:45:54;5.18;;;3.42;;
29430;SDS011;16404;49.902;10.074;2023-02-18T04:48:38;4.35;;;3.25;;
29430;SDS011;16404;49.902;10.074;2023-02-18T04:51:23;5.70;;;3.70;;
29430;SDS011;16404;49.902;10.074;2023-02-18T04:54:07;5.20;;;3.72;;
29430;SDS011;16404;49.902;10.074;2023-02-18T04:56:52;6.38;;;3.72;;
29430;SDS011;16404;49.902;10.074;2023-02-18T04:59:37;5.22;;;3.90;;
29430;SDS011;16404;49.902;10.074;2023-02-18T05:02:22;6.70;;;3.70;;
29430;SDS011;16404;49.902;10.074;2023-02-18T05:05:06;6.10;;;4.90;;
29430;SDS011;16404;49.902;10.074;2023-02-18T05:07:51;7.38;;;4.40;;
29430;SDS011;16404;49.902;10.074;2023-02-18T05:10:36;5.35;;;4.65;;
29430;SDS011;16404;49.902;10.074;2023-02-18T05:13:22;7.10;;;4.53;;
29430;SDS011;16404;49.902;10.074;2023-02-18T05:16:06;5.65;;;4.60;;
29430;SDS011;16404;49.902;10.074;2023-02-18T05:18:51;6.30;;;4.97;;
29430;SDS011;16404;49.902;10.074;2023-02-18T05:21:35;7.30;;;6.03;;
29430;SDS011;16404;49.902;10.074;2023-02-18T05:24:20;6.10;;;4.05;;
29430;SDS011;16404;49.902;10.074;2023-02-18T05:27:04;5.35;;;4.60;;
29430;SDS011;16404;49.902;10.074;2023-02-18T05:29:49;4.45;;;3.85;;
29430;SDS011;16404;49.902;10.074;2023-02-18T05:32:34;5.57;;;3.70;;
29430;SDS011;16404;49.902;10.074;2023-02-18T05:35:18;5.72;;;4.47;;
29430;SDS011;16404;49.902;10.074;2023-02-18T05:38:03;4.07;;;3.60;;
29430;SDS011;16404;49.902;10.074;2023-02-18T05:40:47;5.07;;;3.25;;
29430;SDS011;16404;49.902;10.074;2023-02-18T05:43:32;3.90;;;3.40;;
29430;SDS011;16404;49.902;10.074;2023-02-18T05:46:39;3.72;;;3.22;;
29430;SDS011;16404;49.902;10.074;2023-02-18T05:49:24;6.22;;;3.60;;
29430;SDS011;16404;49.902;10.074;2023-02-18T05:52:09;4.03;;;3.40;;
29430;SDS011;16404;49.902;10.074;2023-02-18T05:54:55;10.63;;;6.80;;
29430;SDS011;16404;49.902;10.074;2023-02-18T05:57:40;21.92;;;10.73;;
29430;SDS011;16404;49.902;10.074;2023-02-18T06:00:24;8.38;;;5.68;;
29430;SDS011;16404;49.902;10.074;2023-02-18T06:03:09;8.02;;;5.40;;
29430;SDS011;16404;49.902;10.074;2023-02-18T06:05:53;11.75;;;6.70;;
29430;SDS011;16404;49.902;10.074;2023-02-18T06:08:38;10.00;;;6.85;;
29430;SDS011;16404;49.902;10.074;2023-02-18T06:11:23;8.60;;;6.53;;
29430;SDS011;16404;49.902;10.074;2023-02-18T06:14:08;11.32;;;7.22;;
29430;SDS011;16404;49.902;10.074;2023-02-18T06:16:52;9.50;;;5.80;;
29430;SDS011;16404;49.902;10.074;2023-02-18T06:19:37;9.25;;;6.20;;
29430;SDS011;16404;49.902;10.074;2023-02-18T06:22:22;10.65;;;6.80;;
29430;SDS011;16404;49.902;10.074;2023-02-18T06:25:06;11.95;;;6.90;;
29430;SDS011;16404;49.902;10.074;2023-02-18T06:27:51;10.90;;;7.60;;
29430;SDS011;16404;49.902;10.074;2023-02-18T06:30:36;14.05;;;7.65;;
29430;SDS011;16404;49.902;10.074;2023-02-18T06:33:20;12.20;;;6.97;;
29430;SDS011;16404;49.902;10.074;2023-02-18T06:36:06;13.20;;;8.05;;
29430;SDS011;16404;49.902;10.074;2023-02-18T06:38:54;13.95;;;8.02;;
29430;SDS011;16404;49.902;10.074;2023-02-18T06:41:40;13.48;;;8.38;;
29430;SDS011;16404;49.902;10.074;2023-02-18T06:44:24;13.30;;;9.18;;
29430;SDS011;16404;49.902;10.074;2023-02-18T06:47:09;14.10;;;9.35;;
29430;SDS011;16404;49.902;10.074;2023-02-18T06:49:53;16.88;;;9.52;;
29430;SDS011;16404;49.902;10.074;2023-02-18T06:52:38;11.85;;;9.38;;
29430;SDS011;16404;49.902;10.074;2023-02-18T06:55:22;17.05;;;9.32;;
29430;SDS011;16404;49.902;10.074;2023-02-18T06:58:08;18.15;;;10.38;;
29430;SDS011;16404;49.902;10.074;2023-02-18T07:00:56;15.50;;;9.80;;
29430;SDS011;16404;49.902;10.074;2023-02-18T07:03:41;14.13;;;9.70;;
29430;SDS011;16404;49.902;10.074;2023-02-18T07:06:25;16.45;;;10.65;;
29430;SDS011;16404;49.902;10.074;2023-02-18T07:09:10;17.20;;;10.82;;
29430;SDS011;16404;49.902;10.074;2023-02-18T07:11:54;16.33;;;10.52;;
29430;SDS011;16404;49.902;10.074;2023-02-18T07:14:40;14.07;;;10.10;;
29430;SDS011;16404;49.902;10.074;2023-02-18T07:17:25;17.83;;;11.82;;
29430;SDS011;16404;49.902;10.074;2023-02-18T07:20:09;20.50;;;11.75;;
29430;SDS011;16404;49.902;10.074;2023-02-18T07:22:54;16.85;;;11.68;;
29430;SDS011;16404;49.902;10.074;2023-02-18T07:25:38;18.77;;;12.13;;
29430;SDS011;16404;49.902;10.074;2023-02-18T07:31:08;16.15;;;11.18;;
29430;SDS011;16404;49.902;10.074;2023-02-18T07:33:52;16.52;;;11.55;;
29430;SDS011;16404;49.902;10.074;2023-02-18T07:36:37;16.20;;;11.73;;
29430;SDS011;16404;49.902;10.074;2023-02-18T07:39:22;18.08;;;11.43;;
29430;SDS011;16404;49.902;10.074;2023-02-18T07:42:07;16.35;;;11.57;;
29430;SDS011;16404;49.902;10.074;2023-02-18T07:44:52;18.42;;;12.48;;
29430;SDS011;16404;49.902;10.074;2023-02-18T07:47:37;17.67;;;11.15;;
29430;SDS011;16404;49.902;10.074;2023-02-18T07:50:21;15.40;;;10.75;;
29430;SDS011;16404;49.902;10.074;2023-02-18T07:53:06;17.30;;;11.23;;
29430;SDS011;16404;49.902;10.074;2023-02-18T07:55:51;14.95;;;10.60;;
29430;SDS011;16404;49.902;10.074;2023-02-18T07:58:36;16.05;;;10.95;;
29430;SDS011;16404;49.902;10.074;2023-02-18T08:01:22;14.55;;;10.60;;
29430;SDS011;16404;49.902;10.074;2023-02-18T08:04:07;15.85;;;11.38;;
29430;SDS011;16404;49.902;10.074;2023-02-18T08:09:36;17.13;;;10.98;;
29430;SDS011;16404;49.902;10.074;2023-02-18T08:12:21;12.75;;;9.38;;
29430;SDS011;16404;49.902;10.074;2023-02-18T08:15:05;15.35;;;10.15;;
29430;SDS011;16404;49.902;10.074;2023-02-18T08:20:35;12.82;;;9.48;;
29430;SDS011;16404;49.902;10.074;2023-02-18T08:23:21;14.15;;;9.60;;
29430;SDS011;16404;49.902;10.074;2023-02-18T08:28:58;13.80;;;10.23;;
29430;SDS011;16404;49.902;10.074;2023-02-18T08:31:43;14.52;;;10.40;;
29430;SDS011;16404;49.902;10.074;2023-02-18T08:34:28;13.60;;;10.18;;
29430;SDS011;16404;49.902;10.074;2023-02-18T08:37:12;14.18;;;10.43;;
29430;SDS011;16404;49.902;10.074;2023-02-18T08:39:57;13.32;;;10.40;;
29430;SDS011;16404;49.902;10.074;2023-02-18T08:42:42;21.42;;;12.98;;
29430;SDS011;16404;49.902;10.074;2023-02-18T08:45:26;14.38;;;10.35;;
29430;SDS011;16404;49.902;10.074;2023-02-18T08:48:11;13.95;;;10.40;;
29430;SDS011;16404;49.902;10.074;2023-02-18T08:50:57;14.85;;;10.70;;
29430;SDS011;16404;49.902;10.074;2023-02-18T08:53:42;14.77;;;10.32;;
29430;SDS011;16404;49.902;10.074;2023-02-18T08:56:27;12.95;;;9.73;;
29430;SDS011;16404;49.902;10.074;2023-02-18T08:59:11;13.98;;;10.18;;
29430;SDS011;16404;49.902;10.074;2023-02-18T09:01:56;15.27;;;10.38;;
29430;SDS011;16404;49.902;10.074;2023-02-18T09:04:41;15.02;;;10.35;;
29430;SDS011;16404;49.902;10.074;2023-02-18T09:07:25;13.95;;;10.10;;
29430;SDS011;16404;49.902;10.074;2023-02-18T09:10:10;14.00;;;10.13;;
29430;SDS011;16404;49.902;10.074;2023-02-18T09:12:54;19.08;;;9.98;;
29430;SDS011;16404;49.902;10.074;2023-02-18T09:15:39;13.55;;;9.27;;
29430;SDS011;16404;49.902;10.074;2023-02-18T09:18:24;14.65;;;10.35;;
29430;SDS011;16404;49.902;10.074;2023-02-18T09:21:10;12.50;;;9.35;;
29430;SDS011;16404;49.902;10.074;2023-02-18T09:23:57;12.82;;;9.65;;
29430;SDS011;16404;49.902;10.074;2023-02-18T09:26:42;12.57;;;8.60;;
29430;SDS011;16404;49.902;10.074;2023-02-18T09:29:27;14.55;;;9.65;;
29430;SDS011;16404;49.902;10.074;2023-02-18T09:32:11;12.15;;;8.70;;
29430;SDS011;16404;49.902;10.074;2023-02-18T09:34:56;12.30;;;9.50;;
29430;SDS011;16404;49.902;10.074;2023-02-18T09:37:41;13.82;;;9.48;;
29430;SDS011;16404;49.902;10.074;2023-02-18T09:40:26;13.10;;;8.75;;
29430;SDS011;16404;49.902;10.074;2023-02-18T09:43:18;13.02;;;9.13;;
29430;SDS011;16404;49.902;10.074;2023-02-18T09:46:06;12.50;;;8.73;;
29430;SDS011;16404;49.902;10.074;2023-02-18T09:49:03;10.95;;;8.43;;
29430;SDS011;16404;49.902;10.074;2023-02-18T09:51:55;12.00;;;8.23;;
29430;SDS011;16404;49.902;10.074;2023-02-18T09:54:44;9.27;;;7.30;;
29430;SDS011;16404;49.902;10.074;2023-02-18T09:57:48;9.90;;;7.82;;
29430;SDS011;16404;49.902;10.074;2023-02-18T10:00:45;11.13;;;7.65;;
29430;SDS011;16404;49.902;10.074;2023-02-18T10:03:35;10.20;;;7.32;;
29430;SDS011;16404;49.902;10.074;2023-02-18T10:06:21;10.02;;;7.43;;
29430;SDS011;16404;49.902;10.074;2023-02-18T10:09:20;9.55;;;7.15;;
29430;SDS011;16404;49.902;10.074;2023-02-18T10:12:14;11.07;;;6.85;;
29430;SDS011;16404;49.902;10.074;2023-02-18T10:15:01;9.75;;;6.60;;
29430;SDS011;16404;49.902;10.074;2023-02-18T10:17:45;11.18;;;7.20;;
29430;SDS011;16404;49.902;10.074;2023-02-18T10:20:31;10.43;;;6.07;;
29430;SDS011;16404;49.902;10.074;2023-02-18T10:26:03;10.73;;;6.38;;
29430;SDS011;16404;49.902;10.074;2023-02-18T10:28:51;9.75;;;6.13;;
29430;SDS011;16404;49.902;10.074;2023-02-18T10:31:36;10.32;;;6.40;;
29430;SDS011;16404;49.902;10.074;2023-02-18T10:34:29;7.47;;;5.60;;
29430;SDS011;16404;49.902;10.074;2023-02-18T10:49:52;7.28;;;5.45;;
29430;SDS011;16404;49.902;10.074;2023-02-18T10:52:43;7.78;;;5.65;;
29430;SDS011;16404;49.902;10.074;2023-02-18T10:55:35;9.23;;;5.80;;
29430;SDS011;16404;49.902;10.074;2023-02-18T11:01:43;8.82;;;5.40;;
29430;SDS011;16404;49.902;10.074;2023-02-18T11:04:37;6.07;;;4.80;;
29430;SDS011;16404;49.902;10.074;2023-02-18T11:07:31;7.10;;;5.32;;
29430;SDS011;16404;49.902;10.074;2023-02-18T11:10:25;6.40;;;5.10;;
29430;SDS011;16404;49.902;10.074;2023-02-18T11:13:14;7.85;;;4.78;;
29430;SDS011;16404;49.902;10.074;2023-02-18T11:16:06;8.75;;;5.18;;
29430;SDS011;16404;49.902;10.074;2023-02-18T11:18:52;7.22;;;4.53;;
29430;SDS011;16404;49.902;10.074;2023-02-18T11:21:37;8.32;;;4.97;;
29430;SDS011;16404;49.902;10.074;2023-02-18T11:24:21;9.55;;;5.20;;
29430;SDS011;16404;49.902;10.074;2023-02-18T11:27:09;8.30;;;4.53;;
29430;SDS011;16404;49.902;10.074;2023-02-18T11:29:59;7.40;;;4.60;;
29430;SDS011;16404;49.902;10.074;2023-02-18T11:32:54;7.05;;;5.10;;
29430;SDS011;16404;49.902;10.074;2023-02-18T11:35:47;6.95;;;4.90;;
29430;SDS011;16404;49.902;10.074;2023-02-18T11:38:40;6.68;;;5.13;;
29430;SDS011;16404;49.902;10.074;2023-02-18T11:41:32;6.65;;;5.30;;
29430;SDS011;16404;49.902;10.074;2023-02-18T11:44:38;6.43;;;4.82;;
29430;SDS011;16404;49.902;10.074;2023-02-18T11:47:32;7.00;;;5.07;;
29430;SDS011;16404;49.902;10.074;2023-02-18T11:50:21;10.95;;;6.10;;
29430;SDS011;16404;49.902;10.074;2023-02-18T11:56:17;5.50;;;4.57;;
29430;SDS011;16404;49.902;10.074;2023-02-18T11:59:03;7.88;;;4.72;;
29430;SDS011;16404;49.902;10.074;2023-02-18T12:01:56;5.68;;;4.10;;
29430;SDS011;16404;49.902;10.074;2023-02-18T12:05:15;4.67;;;3.87;;
29430;SDS011;16404;49.902;10.074;2023-02-18T12:08:19;6.43;;;4.07;;
29430;SDS011;16404;49.902;10.074;2023-02-18T12:11:11;5.70;;;4.55;;
29430;SDS011;16404;49.902;10.074;2023-02-18T12:14:08;5.43;;;4.10;;
29430;SDS011;16404;49.902;10.074;2023-02-18T12:20:30;5.88;;;4.07;;
29430;SDS011;16404;49.902;10.074;2023-02-18T12:26:35;6.15;;;3.97;;
29430;SDS011;16404;49.902;10.074;2023-02-18T12:29:39;4.90;;;3.80;;
29430;SDS011;16404;49.902;10.074;2023-02-18T12:32:51;4.65;;;3.80;;
29430;SDS011;16404;49.902;10.074;2023-02-18T12:36:09;6.43;;;3.80;;
29430;SDS011;16404;49.902;10.074;2023-02-18T12:48:08;4.53;;;3.15;;
29430;SDS011;16404;49.902;10.074;2023-02-18T12:51:21;4.30;;;3.00;;
29430;SDS011;16404;49.902;10.074;2023-02-18T12:57:33;4.60;;;2.85;;
29430;SDS011;16404;49.902;10.074;2023-02-18T13:06:43;4.72;;;2.80;;
29430;SDS011;16404;49.902;10.074;2023-02-18T13:13:32;5.07;;;2.85;;
29430;SDS011;16404;49.902;10.074;2023-02-18T13:16:05;3.95;;;2.30;;
29430;SDS011;16404;49.902;10.074;2023-02-18T13:21:57;2.95;;;2.53;;
29430;SDS011;16404;49.902;10.074;2023-02-18T13:24:46;2.50;;;2.30;;
29430;SDS011;16404;49.902;10.074;2023-02-18T13:30:38;3.65;;;2.20;;
29430;SDS011;16404;49.902;10.074;2023-02-18T13:33:35;2.72;;;2.17;;
29430;SDS011;16404;49.902;10.074;2023-02-18T13:39:34;6.13;;;2.67;;
29430;SDS011;16404;49.902;10.074;2023-02-18T13:48:21;6.80;;;3.92;;
29430;SDS011;16404;49.902;10.074;2023-02-18T13:51:10;13.10;;;6.25;;
29430;SDS011;16404;49.902;10.074;2023-02-18T13:54:19;3.88;;;2.88;;
29430;SDS011;16404;49.902;10.074;2023-02-18T13:57:14;5.18;;;3.03;;
29430;SDS011;16404;49.902;10.074;2023-02-18T14:00:03;3.90;;;2.73;;
29430;SDS011;16404;49.902;10.074;2023-02-18T14:02:58;5.28;;;2.72;;
29430;SDS011;16404;49.902;10.074;2023-02-18T14:05:44;4.20;;;2.47;;
29430;SDS011;16404;49.902;10.074;2023-02-18T14:08:35;6.03;;;2.83;;
29430;SDS011;16404;49.902;10.074;2023-02-18T14:11:30;2.40;;;1.90;;
29430;SDS011;16404;49.902;10.074;2023-02-18T14:22:47;6.57;;;4.32;;
29430;SDS011;16404;49.902;10.074;2023-02-18T14:25:35;7.22;;;5.32;;
29430;SDS011;16404;49.902;10.074;2023-02-18T14:31:35;7.85;;;6.07;;
29430;SDS011;16404;49.902;10.074;2023-02-18T14:41:02;6.88;;;3.33;;
29430;SDS011;16404;49.902;10.074;2023-02-18T14:49:56;3.70;;;2.70;;
29430;SDS011;16404;49.902;10.074;2023-02-18T14:52:54;5.60;;;3.25;;
29430;SDS011;16404;49.902;10.074;2023-02-18T14:55:44;7.75;;;3.20;;
29430;SDS011;16404;49.902;10.074;2023-02-18T14:58:38;5.57;;;3.28;;
29430;SDS011;16404;49.902;10.074;2023-02-18T15:01:30;4.10;;;3.15;;
29430;SDS011;16404;49.902;10.074;2023-02-18T15:04:16;4.38;;;2.80;;
29430;SDS011;16404;49.902;10.074;2023-02-18T15:07:02;3.45;;;3.10;;
29430;SDS011;16404;49.902;10.074;2023-02-18T15:09:49;6.28;;;3.25;;
29430;SDS011;16404;49.902;10.074;2023-02-18T15:12:36;6.00;;;4.78;;
29430;SDS011;16404;49.902;10.074;2023-02-18T15:15:24;5.82;;;4.63;;
29430;SDS011;16404;49.902;10.074;2023-02-18T15:18:15;4.53;;;3.53;;
29430;SDS011;16404;49.902;10.074;2023-02-18T15:21:05;4.20;;;3.55;;
29430;SDS011;16404;49.902;10.074;2023-02-18T15:23:51;5.50;;;4.03;;
29430;SDS011;16404;49.902;10.074;2023-02-18T15:26:36;5.72;;;4.07;;
29430;SDS011;16404;49.902;10.074;2023-02-18T15:29:27;6.43;;;3.90;;
29430;SDS011;16404;49.902;10.074;2023-02-18T15:32:20;5.43;;;4.85;;
29430;SDS011;16404;49.902;10.074;2023-02-18T15:35:19;4.95;;;4.13;;
29430;SDS011;16404;49.902;10.074;2023-02-18T15:38:12;5.97;;;4.07;;
29430;SDS011;16404;49.902;10.074;2023-02-18T15:41:04;4.32;;;3.65;;
29430;SDS011;16404;49.902;10.074;2023-02-18T15:46:37;4.85;;;3.17;;
29430;SDS011;16404;49.902;10.074;2023-02-18T15:49:22;5.55;;;3.40;;
29430;SDS011;16404;49.902;10.074;2023-02-18T15:52:07;4.53;;;3.42;;
29430;SDS011;16404;49.902;10.074;2023-02-18T15:54:51;4.40;;;3.40;;
29430;SDS011;16404;49.902;10.074;2023-02-18T16:00:26;4.93;;;3.10;;
29430;SDS011;16404;49.902;10.074;2023-02-18T16:03:15;7.15;;;4.28;;
29430;SDS011;16404;49.902;10.074;2023-02-18T16:06:16;7.85;;;3.78;;
29430;SDS011;16404;49.902;10.074;2023-02-18T16:09:26;6.85;;;3.50;;
29430;SDS011;16404;49.902;10.074;2023-02-18T16:12:18;6.18;;;3.25;;
29430;SDS011;16404;49.902;10.074;2023-02-18T16:15:14;6.82;;;4.03;;
29430;SDS011;16404;49.902;10.074;2023-02-18T16:24:01;6.50;;;3.63;;
29430;SDS011;16404;49.902;10.074;2023-02-18T16:26:49;6.65;;;3.95;;
29430;SDS011;16404;49.902;10.074;2023-02-18T16:29:38;4.90;;;3.60;;
29430;SDS011;16404;49.902;10.074;2023-02-18T16:32:23;8.88;;;4.70;;
29430;SDS011;16404;49.902;10.074;2023-02-18T16:35:08;6.40;;;4.40;;
29430;SDS011;16404;49.902;10.074;2023-02-18T16:37:54;6.40;;;4.20;;
29430;SDS011;16404;49.902;10.074;2023-02-18T16:40:40;6.18;;;3.78;;
29430;SDS011;16404;49.902;10.074;2023-02-18T16:43:25;5.68;;;3.17;;
29430;SDS011;16404;49.902;10.074;2023-02-18T16:46:15;8.45;;;5.35;;
29430;SDS011;16404;49.902;10.074;2023-02-18T16:49:01;5.00;;;4.30;;
29430;SDS011;16404;49.902;10.074;2023-02-18T16:51:46;7.43;;;5.68;;
29430;SDS011;16404;49.902;10.074;2023-02-18T16:54:31;8.68;;;5.15;;
29430;SDS011;16404;49.902;10.074;2023-02-18T16:57:16;6.78;;;4.38;;
29430;SDS011;16404;49.902;10.074;2023-02-18T17:00:01;8.73;;;4.47;;
29430;SDS011;16404;49.902;10.074;2023-02-18T17:05:35;9.85;;;4.80;;
29430;SDS011;16404;49.902;10.074;2023-02-18T17:08:24;10.13;;;4.90;;
29430;SDS011;16404;49.902;10.074;2023-02-18T17:11:14;6.93;;;4.80;;
29430;SDS011;16404;49.902;10.074;2023-02-18T17:14:03;6.68;;;4.57;;
29430;SDS011;16404;49.902;10.074;2023-02-18T17:16:49;8.13;;;4.50;;
29430;SDS011;16404;49.902;10.074;2023-02-18T17:19:35;7.95;;;5.05;;
29430;SDS011;16404;49.902;10.074;2023-02-18T17:22:20;6.93;;;4.25;;
29430;SDS011;16404;49.902;10.074;2023-02-18T17:25:09;8.20;;;4.70;;
29430;SDS011;16404;49.902;10.074;2023-02-18T17:27:57;9.13;;;4.88;;
29430;SDS011;16404;49.902;10.074;2023-02-18T17:30:41;6.60;;;4.45;;
29430;SDS011;16404;49.902;10.074;2023-02-18T17:33:26;8.50;;;4.68;;
29430;SDS011;16404;49.902;10.074;2023-02-18T17:36:11;7.70;;;5.05;;
29430;SDS011;16404;49.902;10.074;2023-02-18T17:38:56;5.88;;;4.75;;
29430;SDS011;16404;49.902;10.074;2023-02-18T17:41:41;6.07;;;4.70;;
29430;SDS011;16404;49.902;10.074;2023-02-18T17:47:11;6.20;;;4.93;;
29430;SDS011;16404;49.902;10.074;2023-02-18T17:49:56;6.75;;;4.63;;
29430;SDS011;16404;49.902;10.074;2023-02-18T17:52:41;10.27;;;5.53;;
29430;SDS011;16404;49.902;10.074;2023-02-18T17:55:26;9.77;;;5.53;;
29430;SDS011;16404;49.902;10.074;2023-02-18T17:58:13;10.55;;;6.30;;
29430;SDS011;16404;49.902;10.074;2023-02-18T18:00:57;9.80;;;5.85;;
29430;SDS011;16404;49.902;10.074;2023-02-18T18:03:42;8.52;;;5.35;;
29430;SDS011;16404;49.902;10.074;2023-02-18T18:06:27;8.57;;;5.95;;
29430;SDS011;16404;49.902;10.074;2023-02-18T18:09:11;11.98;;;7.32;;
29430;SDS011;16404;49.902;10.074;2023-02-18T18:11:56;12.82;;;7.25;;
29430;SDS011;16404;49.902;10.074;2023-02-18T18:14:41;6.90;;;6.07;;
29430;SDS011;16404;49.902;10.074;2023-02-18T18:17:25;8.27;;;5.22;;
29430;SDS011;16404;49.902;10.074;2023-02-18T18:20:10;7.68;;;5.80;;
29430;SDS011;16404;49.902;10.074;2023-02-18T18:22:55;9.85;;;6.32;;
29430;SDS011;16404;49.902;10.074;2023-02-18T18:25:42;8.05;;;6.32;;
29430;SDS011;16404;49.902;10.074;2023-02-18T18:28:31;10.70;;;6.50;;
29430;SDS011;16404;49.902;10.074;2023-02-18T18:31:16;14.32;;;6.43;;
29430;SDS011;16404;49.902;10.074;2023-02-18T18:34:02;10.93;;;7.05;;
29430;SDS011;16404;49.902;10.074;2023-02-18T18:36:46;16.45;;;10.25;;
29430;SDS011;16404;49.902;10.074;2023-02-18T18:39:31;11.23;;;7.82;;
29430;SDS011;16404;49.902;10.074;2023-02-18T18:42:15;13.93;;;8.07;;
29430;SDS011;16404;49.902;10.074;2023-02-18T18:45:00;12.75;;;8.15;;
29430;SDS011;16404;49.902;10.074;2023-02-18T18:47:45;12.35;;;7.85;;
29430;SDS011;16404;49.902;10.074;2023-02-18T18:50:30;13.77;;;7.72;;
29430;SDS011;16404;49.902;10.074;2023-02-18T18:53:25;10.82;;;5.70;;
29430;SDS011;16404;49.902;10.074;2023-02-18T18:56:20;6.70;;;5.40;;
29430;SDS011;16404;49.902;10.074;2023-02-18T18:59:05;6.65;;;4.97;;
29430;SDS011;16404;49.902;10.074;2023-02-18T19:01:57;7.57;;;5.55;;
29430;SDS011;16404;49.902;10.074;2023-02-18T19:04:42;10.73;;;7.18;;
29430;SDS011;16404;49.902;10.074;2023-02-18T19:07:26;8.40;;;5.55;;
29430;SDS011;16404;49.902;10.074;2023-02-18T19:10:11;7.63;;;5.20;;
29430;SDS011;16404;49.902;10.074;2023-02-18T19:15:47;8.25;;;4.85;;
29430;SDS011;16404;49.902;10.074;2023-02-18T19:18:32;8.82;;;5.10;;
29430;SDS011;16404;49.902;10.074;2023-02-18T19:21:17;8.77;;;5.63;;
29430;SDS011;16404;49.902;10.074;2023-02-18T19:26:46;4.85;;;3.83;;
29430;SDS011;16404;49.902;10.074;2023-02-18T19:29:31;8.82;;;5.25;;